首页
METAR-TAF:

METAR-TAF

机场 :

Guymon, 奧克拉荷馬州, 美国

纬度: 36-40-54N, 经度: 101-30-19W, 海拔: 952米

当前天气观测

该预报发布于1小时和9分钟前的14:53 UTC
风速10节,风向南转西南
温度 30°C
湿度 43%
气压 1015 hPa
能見度: 16.1公里
天空无云

METAR: KGUY 241453Z AUTO 21010KT 10SM CLR 30/16 A2996 RMK AO2 SLP090 T03000161 50004

时间: 11:02 (16:02 UTC)

预报

该预报发布于4小时和34分钟前的11:28 UTC
预报有效从24日的 12点(UTC)到 25日的 12点(UTC)
风速13节,风向南转西南
能見度: 10公里
散云层高于15000英尺
从 24日的 1600点(UTC)
风速15节,风向南转西南,有时为25节阵风
能見度: 10公里
少量云层高于25000英尺
从 25日的 0200点(UTC)
风速13节,风向
能見度: 10公里
散云层高于25000英尺

TAF: KGUY 241128Z 2412/2512 21013KT P6SM SCT150 FM241600 21015G25KT P6SM FEW250 FM250200 18013KT P6SM SCT250

超过4000个机场的气象观测和天气预报(METAR&TAF报告)。

可查询的气象台以黄色和红色小点在地图上表示。

将鼠标移到小点上方,可查看气象台名称。

然后点击查看天气观测和预报。

如需切换地图:点击带黑十字的绿色按钮放大地图;点击带横线的绿色按钮缩小地图;或者点击绿色箭头查看邻近地区的地图。


METAR-TAF: